Date,TemperatureHighF,TemperatureAvgF,TemperatureLowF,DewpointHighF,DewpointAvgF,DewpointLowF,HumidityHigh,HumidityAvg,HumidityLow,PressureMaxIn,PressureMinIn,WindSpeedMaxMPH,WindSpeedAvgMPH,GustSpeedMaxMPH,PrecipitationSumIn
2013-7-1,85.1,67.0,52.7,54.9,47.0,39.6,77,53,26,29.95,29.81,6,0,14,0.00
2013-7-2,81.9,63.6,47.5,51.7,45.0,40.6,83,56,31,29.95,29.84,5,0,10,0.00
2013-7-3,88.7,68.9,56.5,58.9,51.8,46.2,79,59,35,29.89,29.78,3,0,8,0.00
2013-7-4,84.6,69.8,60.3,67.9,60.7,53.4,88,74,55,29.81,29.75,2,0,9,0.00
2013-7-5,93.0,73.5,57.6,70.7,61.2,54.3,94,70,39,29.80,29.71,1,0,9,0.00
2013-7-6,93.9,74.5,60.4,69.2,61.8,56.4,90,69,41,29.76,29.69,3,0,20,0.00
2013-7-7,65.5,61.0,59.0,59.9,56.4,55.3,92,85,76,29.74,29.68,0,0,2,0.00
2013-7-8,79.0,69.7,64.4,69.3,63.1,58.6,86,80,70,29.75,29.70,3,0,9,0.00
2013-7-9,87.8,73.2,62.6,74.1,66.6,59.3,95,81,61,29.76,29.49,1,0,6,0.02
2013-7-10,71.6,63.0,55.2,68.2,60.3,51.3,99,91,75,29.66,29.34,8,1,20,0.26
2013-7-11,79.2,62.2,50.7,59.5,53.5,48.4,97,75,47,29.86,29.66,5,0,12,0.00
2013-7-12,91.8,67.2,48.2,63.6,54.8,45.1,93,69,40,29.93,29.84,1,0,9,0.00
2013-7-13,93.4,73.0,57.7,65.8,57.6,51.2,85,63,30,29.95,29.88,5,0,10,0.00
2013-7-14,96.3,75.3,58.3,67.9,61.4,53.7,89,66,39,30.01,29.94,2,0,12,0.00
2013-7-15,133.5,74.6,61.9,99.9,69.5,53.4,99,85,54,30.04,29.97,2,0,11,0.05
2013-7-16,97.2,77.1,63.7,88.0,74.0,63.4,99,91,74,30.03,29.90,2,0,10,0.00
2013-7-17,95.4,79.6,70.2,86.9,76.2,69.9,99,90,70,29.94,29.83,6,0,17,0.00
2013-7-18,86.9,73.5,67.6,84.9,72.6,67.0,99,97,88,29.84,29.46,8,0,18,1.25
2013-7-19,126.1,33.2,-39.8,81.7,32.3,-40.0,99,97,87,29.53,29.35,7,0,17,0.97
2013-7-20,69.3,60.9,54.9,62.5,57.6,52.4,99,90,71,29.75,29.46,9,1,20,0.00
2013-7-21,81.7,62.6,46.4,74.8,59.4,45.6,99,90,77,29.82,29.71,2,0,8,0.00
2013-7-22,85.8,67.4,58.5,79.8,65.0,56.0,96,92,81,29.73,29.48,3,0,10,0.00
2013-7-23,65.3,57.3,51.1,51.7,48.3,46.4,85,73,60,29.70,29.59,8,1,30,0.00
2013-7-24,79.2,59.7,43.0,53.5,47.7,40.3,96,69,38,29.81,29.69,7,0,16,0.00
2013-7-25,82.6,64.4,49.5,63.5,54.7,45.4,91,73,47,29.82,29.74,3,0,10,0.00
2013-7-26,66.7,62.9,60.3,63.2,60.2,54.3,99,91,73,29.74,29.56,3,0,11,2.48
2013-7-27,69.6,58.1,53.4,64.2,56.1,51.2,99,94,70,29.62,29.47,8,0,17,0.01
2013-7-28,70.7,57.8,51.8,63.0,55.0,50.6,99,91,72,29.65,29.44,6,0,16,1.61
2013-7-29,68.7,58.7,53.1,62.1,54.9,49.1,99,88,64,29.90,29.65,7,0,15,0.14
2013-7-30,84.6,62.6,49.1,67.1,56.3,46.5,98,82,52,29.95,29.85,2,0,7,0.00
2013-7-31,80.8,64.5,57.0,69.8,60.9,56.4,99,89,66,29.86,29.61,6,0,12,0.73